Pagrindinis puslapis
METAR-TAF:

METAR-TAF

Oro uostai :

Shungnak, Aliaska, Jungtinės Amerikos Valstijos

platuma: 66-53-17N, ilguma: 157-09-45W, Aukštis: 60 m

Dabartinis oras

Ataskaita buvo paskelbta 1 valandą ir 10 minutes, ne 20:56 UTC
Vėjas 9 kt iš Vakarų
Temperatūra 3°C
Drėgmė 70%
Slėgis 1000 hPa
Matomumas: 16.1 km
Giedras dangus

METAR: PAGH 212056Z AUTO 27009KT 10SM CLR 03/M02 A2953 RMK AO2 SLP006 6//// T00281022 51011 PNO $

Laikas: 14:06 (22:06 UTC)


TAF: trūkstamas

Orai ataskaitas ir orų prognozės (METAR, TAF).

turimą stotys yra geltonos ir raudonos taškus žemėlapyje.

Perkelti pele per norėdami pamatyti stoties vardą.

Tada spustelėkite, norėdami matyti oro stebėjimo ir prognozės.

Norėdami pakeisti žemėlapį: spustelėkite ant žalios mygtukų su juodo kryžiaus žemyn,; žalią mygtuką su brūkšneliu, jei norite nutolinti; arba žalių rodyklių gretimoms žemėlapius.


METAR-TAF: